createdAt,value
2023-02-07T00:00:25.011Z,3.70
2023-02-07T00:02:51.949Z,3.67
2023-02-07T00:05:18.658Z,3.65
2023-02-07T00:07:45.381Z,3.62
2023-02-07T00:10:12.048Z,3.58
2023-02-07T00:12:38.688Z,3.56
2023-02-07T00:15:06.336Z,3.53
2023-02-07T00:17:33.312Z,3.50
2023-02-07T00:19:59.912Z,3.47
2023-02-07T00:22:26.848Z,3.45
2023-02-07T00:24:53.461Z,3.42
2023-02-07T00:27:20.174Z,3.38
2023-02-07T00:29:46.777Z,3.30
2023-02-07T00:32:13.640Z,3.28
2023-02-07T00:34:42.162Z,3.24
2023-02-07T00:37:09.894Z,3.18
2023-02-07T00:39:38.406Z,3.15
2023-02-07T00:42:05.586Z,3.15
2023-02-07T00:44:33.119Z,3.11
2023-02-07T00:47:00.466Z,3.11
2023-02-07T00:49:27.122Z,3.10
2023-02-07T00:51:53.827Z,3.09
2023-02-07T00:54:20.574Z,3.07
2023-02-07T00:56:47.226Z,3.07
2023-02-07T00:59:14.157Z,3.06
2023-02-07T01:01:40.780Z,3.07
2023-02-07T01:04:07.462Z,3.04
2023-02-07T01:06:37.135Z,3.04
2023-02-07T01:09:05.729Z,3.04
2023-02-07T01:11:33.026Z,3.03
2023-02-07T01:14:01.232Z,3.03
2023-02-07T01:16:33.997Z,3.02
2023-02-07T01:19:04.319Z,2.99
2023-02-07T01:21:30.984Z,2.89
2023-02-07T01:23:57.589Z,2.81
2023-02-07T01:26:25.417Z,2.73
2023-02-07T01:28:55.056Z,2.70
2023-02-07T01:31:23.270Z,2.69
2023-02-07T01:33:55.469Z,2.66
2023-02-07T01:36:23.090Z,2.65
2023-02-07T01:38:52.346Z,2.66
2023-02-07T01:41:19.905Z,2.66
2023-02-07T01:43:57.174Z,2.66
2023-02-07T01:46:24.500Z,2.67
2023-02-07T01:48:53.129Z,2.67
2023-02-07T01:51:20.077Z,2.69
2023-02-07T01:53:47.505Z,2.70
2023-02-07T01:56:29.658Z,2.70
2023-02-07T01:59:01.641Z,2.68
2023-02-07T02:01:28.408Z,2.62
2023-02-07T02:03:56.800Z,2.57
2023-02-07T02:06:27.004Z,2.52
2023-02-07T02:08:57.377Z,2.51
2023-02-07T02:11:37.872Z,2.49
2023-02-07T02:14:29.084Z,2.48
2023-02-07T02:17:09.510Z,2.42
2023-02-07T02:19:48.403Z,2.38
2023-02-07T02:22:59.727Z,2.38
2023-02-07T02:26:02.140Z,2.37
2023-02-07T02:28:41.295Z,2.36
2023-02-07T02:31:32.803Z,2.35
2023-02-07T02:34:37.801Z,2.35
2023-02-07T02:37:19.906Z,2.38
2023-02-07T02:40:08.798Z,2.38
2023-02-07T02:42:44.004Z,2.40
2023-02-07T02:45:20.933Z,2.44
2023-02-07T02:47:50.871Z,2.45
2023-02-07T02:50:31.166Z,2.43
2023-02-07T02:52:57.817Z,2.38
2023-02-07T02:55:46.316Z,2.32
2023-02-07T02:58:28.301Z,2.30
2023-02-07T03:01:13.004Z,2.29
2023-02-07T03:04:05.439Z,2.28
2023-02-07T03:06:53.437Z,2.27
2023-02-07T03:09:40.249Z,2.28
2023-02-07T03:12:28.761Z,2.29
2023-02-07T03:15:02.405Z,2.29
2023-02-07T03:17:56.124Z,2.28
2023-02-07T03:20:30.461Z,2.26
2023-02-07T03:22:59.049Z,2.19
2023-02-07T03:25:29.236Z,2.16
2023-02-07T03:27:57.029Z,2.15
2023-02-07T03:30:28.489Z,2.15
2023-02-07T03:32:59.489Z,2.13
2023-02-07T03:36:11.317Z,2.13
2023-02-07T03:38:38.745Z,2.12
2023-02-07T03:41:12.851Z,2.12
2023-02-07T03:43:40.975Z,2.12
2023-02-07T03:46:11.603Z,2.10
2023-02-07T03:48:38.600Z,2.08
2023-02-07T03:51:05.408Z,2.06
2023-02-07T03:53:31.989Z,1.93
2023-02-07T03:55:58.715Z,1.83
2023-02-07T03:58:25.393Z,1.78
2023-02-07T04:00:52.102Z,1.75
2023-02-07T04:03:18.799Z,1.72
2023-02-07T04:05:46.402Z,1.69
2023-02-07T04:08:13.084Z,1.66
2023-02-07T04:10:39.739Z,1.64
2023-02-07T04:13:06.543Z,1.61
2023-02-07T04:15:33.604Z,1.59
2023-02-07T04:18:00.204Z,1.58
2023-02-07T04:20:26.852Z,1.56
2023-02-07T04:22:53.501Z,1.55
2023-02-07T04:25:20.150Z,1.53
2023-02-07T04:27:46.839Z,1.49
2023-02-07T04:30:13.544Z,1.44
2023-02-07T04:32:40.140Z,1.40
2023-02-07T04:35:07.157Z,1.35
2023-02-07T04:37:33.793Z,1.30
2023-02-07T04:40:00.382Z,1.28
2023-02-07T04:42:26.957Z,1.24
2023-02-07T04:44:53.706Z,1.21
2023-02-07T04:47:20.353Z,1.19
2023-02-07T04:49:46.993Z,1.17
2023-02-07T04:52:13.746Z,1.13
2023-02-07T04:54:40.379Z,1.10
2023-02-07T04:57:07.173Z,1.08
2023-02-07T04:59:33.979Z,1.06
2023-02-07T05:02:00.605Z,1.04
2023-02-07T05:04:27.329Z,1.04
2023-02-07T05:06:54.054Z,1.05
2023-02-07T05:09:20.661Z,1.02
2023-02-07T05:11:47.330Z,0.99
2023-02-07T05:14:14.084Z,0.97
2023-02-07T05:16:40.725Z,0.94
2023-02-07T05:19:07.322Z,0.92
2023-02-07T05:21:33.987Z,0.89
2023-02-07T05:24:00.601Z,0.88
2023-02-07T05:26:27.201Z,0.85
2023-02-07T05:28:53.861Z,0.84
2023-02-07T05:31:21.573Z,0.83
2023-02-07T05:33:48.254Z,0.81
2023-02-07T05:36:14.889Z,0.80
2023-02-07T05:38:41.862Z,0.79
2023-02-07T05:41:08.520Z,0.78
2023-02-07T05:43:35.193Z,0.77
2023-02-07T05:46:01.877Z,0.75
2023-02-07T05:48:28.516Z,0.74
2023-02-07T05:50:55.141Z,0.73
2023-02-07T05:53:21.838Z,0.72
2023-02-07T05:55:51.778Z,0.70
2023-02-07T05:58:18.422Z,0.69
2023-02-07T06:00:45.211Z,0.70
2023-02-07T06:03:11.896Z,0.69
2023-02-07T06:05:38.928Z,0.69
2023-02-07T06:08:05.672Z,0.68
2023-02-07T06:10:33.127Z,0.68
2023-02-07T06:12:59.807Z,0.68
2023-02-07T06:15:26.550Z,0.67
2023-02-07T06:17:53.370Z,0.66
2023-02-07T06:20:20.385Z,0.65
2023-02-07T06:22:47.080Z,0.64
2023-02-07T06:25:13.995Z,0.61
2023-02-07T06:27:41.750Z,0.59
2023-02-07T06:30:10.867Z,0.58
2023-02-07T06:32:37.520Z,0.56
2023-02-07T06:35:06.355Z,0.55
2023-02-07T06:37:33.069Z,0.56
2023-02-07T06:39:59.713Z,0.56
2023-02-07T06:42:26.642Z,0.55
2023-02-07T06:44:53.289Z,0.55
2023-02-07T06:47:20.940Z,0.53
2023-02-07T06:49:47.907Z,0.51
2023-02-07T06:52:15.272Z,0.50
2023-02-07T06:54:42.016Z,0.51
2023-02-07T06:57:08.824Z,0.52
2023-02-07T06:59:35.437Z,0.56
2023-02-07T07:02:03.724Z,0.59
2023-02-07T07:04:31.072Z,0.63
2023-02-07T07:06:57.765Z,0.66
2023-02-07T07:09:24.424Z,0.69
2023-02-07T07:11:51.076Z,0.72
2023-02-07T07:14:17.781Z,0.74
2023-02-07T07:16:44.547Z,0.77
2023-02-07T07:19:11.800Z,0.82
2023-02-07T07:21:38.594Z,0.86
2023-02-07T07:24:05.717Z,0.90
2023-02-07T07:26:47.938Z,0.94
2023-02-07T07:29:15.624Z,1.00
2023-02-07T07:31:42.332Z,1.06
2023-02-07T07:34:09.092Z,1.14
2023-02-07T07:36:35.748Z,1.20
2023-02-07T07:39:02.449Z,1.26
2023-02-07T07:41:29.208Z,1.32
2023-02-07T07:43:55.992Z,1.38
2023-02-07T07:46:22.674Z,1.46
2023-02-07T07:48:49.314Z,1.54
2023-02-07T07:51:15.908Z,1.64
2023-02-07T07:53:42.520Z,1.74
2023-02-07T07:56:09.218Z,1.84
2023-02-07T07:58:36.600Z,1.95
2023-02-07T08:01:03.461Z,2.08
2023-02-07T08:03:30.212Z,2.23
2023-02-07T08:05:56.915Z,2.37
2023-02-07T08:08:23.572Z,2.52
2023-02-07T08:10:50.259Z,2.65
2023-02-07T08:13:17.111Z,2.79
2023-02-07T08:15:44.178Z,2.92
2023-02-07T08:18:10.817Z,3.07
2023-02-07T08:20:38.079Z,3.22
2023-02-07T08:23:05.095Z,3.36
2023-02-07T08:25:31.807Z,3.48
2023-02-07T08:27:58.543Z,3.60
2023-02-07T08:30:25.970Z,3.74
2023-02-07T08:32:52.885Z,3.89
2023-02-07T08:35:19.579Z,4.07
2023-02-07T08:37:46.245Z,4.25
2023-02-07T08:40:14.264Z,4.42
2023-02-07T08:42:41.137Z,4.58
2023-02-07T08:45:08.505Z,4.76
2023-02-07T08:47:35.443Z,4.92
2023-02-07T08:50:02.326Z,5.09
2023-02-07T12:03:52.953Z,9.53
2023-02-07T12:06:23.279Z,9.50
2023-02-07T12:08:52.164Z,9.46
2023-02-07T12:11:24.391Z,9.43
2023-02-07T12:13:57.001Z,9.37
2023-02-07T12:16:32.400Z,9.39
2023-02-07T12:19:13.207Z,9.35
2023-02-07T12:22:07.824Z,9.32
2023-02-07T12:24:43.371Z,9.33
2023-02-07T12:27:18.150Z,9.43
2023-02-07T12:29:56.173Z,9.51
2023-02-07T12:33:11.239Z,9.61
2023-02-07T12:35:57.478Z,9.73
2023-02-07T12:38:30.486Z,9.87
2023-02-07T12:41:19.256Z,9.91
2023-02-07T12:44:02.178Z,9.91
2023-02-07T12:46:33.060Z,9.98
2023-02-07T12:49:29.280Z,9.97
2023-02-07T12:52:17.096Z,9.98
2023-02-07T12:55:14.486Z,9.82
2023-02-07T12:58:10.662Z,9.59
2023-02-07T13:00:58.032Z,9.35
2023-02-07T13:03:48.632Z,9.16
2023-02-07T13:06:24.413Z,9.10
2023-02-07T13:09:06.282Z,8.96
2023-02-07T13:11:48.331Z,8.82
2023-02-07T13:14:17.742Z,8.76
2023-02-07T13:17:38.868Z,8.69
2023-02-07T13:20:39.319Z,8.54
2023-02-07T13:23:15.842Z,8.37
2023-02-07T13:25:46.290Z,8.35
2023-02-07T13:28:22.698Z,8.29
2023-02-07T13:30:50.592Z,8.17
2023-02-07T13:33:40.711Z,8.10
2023-02-07T13:36:27.515Z,8.02
2023-02-07T13:39:07.051Z,7.91
2023-02-07T13:41:48.851Z,7.83
2023-02-07T13:44:38.629Z,7.77
2023-02-07T13:47:36.335Z,7.72
2023-02-07T13:50:21.167Z,7.61
2023-02-07T13:53:11.668Z,7.52
2023-02-07T13:55:41.247Z,7.49
2023-02-07T13:58:56.003Z,7.49
2023-02-07T14:01:34.897Z,7.49
2023-02-07T14:04:06.363Z,7.41
2023-02-07T14:07:02.707Z,7.35
2023-02-07T14:09:34.920Z,7.25
2023-02-07T14:12:01.389Z,7.20
2023-02-07T14:14:42.171Z,7.17
2023-02-07T14:17:15.580Z,7.16
2023-02-07T14:19:45.743Z,7.15
2023-02-07T14:22:18.185Z,7.17
2023-02-07T14:25:18.518Z,7.22
2023-02-07T14:28:09.548Z,7.27
2023-02-07T14:30:38.345Z,7.31
2023-02-07T14:33:22.862Z,7.31
2023-02-07T14:36:13.067Z,7.33
2023-02-07T14:38:58.475Z,7.36
2023-02-07T14:41:30.512Z,7.31
2023-02-07T14:44:09.252Z,7.30
2023-02-07T14:46:41.033Z,7.27
2023-02-07T14:49:43.153Z,7.19
2023-02-07T14:52:21.322Z,7.08
2023-02-07T14:54:55.701Z,7.03
2023-02-07T14:57:54.427Z,7.00
2023-02-07T15:00:28.936Z,6.96
2023-02-07T15:02:58.721Z,6.93
2023-02-07T15:05:34.825Z,6.94
2023-02-07T15:08:06.343Z,6.96
2023-02-07T15:10:36.834Z,6.94
2023-02-07T15:13:06.711Z,6.89
2023-02-07T15:15:53.527Z,6.87
2023-02-07T15:18:21.987Z,6.85
2023-02-07T15:20:52.244Z,6.82
2023-02-07T15:23:19.804Z,6.78
2023-02-07T15:25:46.959Z,6.74
2023-02-07T15:28:30.496Z,6.70
2023-02-07T15:31:00.168Z,6.67
2023-02-07T15:33:36.854Z,6.65
2023-02-07T15:36:06.515Z,6.66
2023-02-07T15:38:33.829Z,6.68
2023-02-07T15:41:00.570Z,6.68
2023-02-07T15:43:30.923Z,6.69
2023-02-07T15:46:09.031Z,6.69
2023-02-07T15:48:55.181Z,6.68
2023-02-07T15:51:28.822Z,6.66
2023-02-07T15:54:00.309Z,6.65
2023-02-07T15:56:30.034Z,6.61
2023-02-07T15:59:03.482Z,6.57
2023-02-07T16:01:30.895Z,6.54
2023-02-07T16:03:58.664Z,6.53
2023-02-07T16:06:27.756Z,6.53
2023-02-07T16:08:55.838Z,6.51
2023-02-07T16:11:25.424Z,6.50
2023-02-07T16:13:59.681Z,6.48
2023-02-07T16:16:29.017Z,6.46
2023-02-07T16:19:15.689Z,6.44
2023-02-07T16:21:43.788Z,6.41
2023-02-07T16:24:22.825Z,6.37
2023-02-07T16:26:50.929Z,6.31
2023-02-07T16:29:20.837Z,6.27
2023-02-07T16:31:48.185Z,6.20
2023-02-07T16:34:17.403Z,6.12
2023-02-07T16:36:44.360Z,6.05
2023-02-07T16:39:11.025Z,5.97
2023-02-07T16:41:42.343Z,5.89
2023-02-07T16:44:19.261Z,5.80
2023-02-07T16:46:46.084Z,5.69
2023-02-07T16:49:24.258Z,5.60
2023-02-07T16:51:52.223Z,5.49
2023-02-07T16:54:19.331Z,5.39
2023-02-07T16:56:47.990Z,5.29
2023-02-07T16:59:21.575Z,5.21
2023-02-07T17:01:50.644Z,5.13
2023-02-07T17:04:17.792Z,5.08
2023-02-07T17:06:45.026Z,5.01
2023-02-07T17:09:24.351Z,4.93
2023-02-07T17:11:54.709Z,4.82
2023-02-07T17:14:22.249Z,4.76
2023-02-07T17:16:49.439Z,4.72
2023-02-07T17:19:19.225Z,4.67
2023-02-07T17:21:46.958Z,4.63
2023-02-07T17:24:14.098Z,4.60
2023-02-07T17:26:46.262Z,4.56
2023-02-07T17:29:15.217Z,4.51
2023-02-07T17:31:42.509Z,4.47
2023-02-07T17:34:09.892Z,4.42
2023-02-07T17:36:37.621Z,4.39
2023-02-07T17:39:04.256Z,4.36
2023-02-07T17:41:31.599Z,4.32
2023-02-07T17:43:58.228Z,4.29
2023-02-07T17:46:26.962Z,4.25
2023-02-07T17:48:54.855Z,4.22
2023-02-07T17:51:23.899Z,4.19
2023-02-07T17:53:51.317Z,4.16
2023-02-07T17:56:17.835Z,4.14
2023-02-07T17:58:44.400Z,4.12
2023-02-07T18:01:11.001Z,4.11
2023-02-07T18:03:37.617Z,4.08
2023-02-07T18:06:04.345Z,4.05
2023-02-07T18:08:30.992Z,4.02
2023-02-07T18:11:01.487Z,4.00
2023-02-07T18:13:28.054Z,3.98
2023-02-07T18:15:54.770Z,3.94
2023-02-07T18:18:21.510Z,3.91
2023-02-07T18:20:48.130Z,3.88
2023-02-07T18:23:15.556Z,3.84
2023-02-07T18:25:48.171Z,3.82
2023-02-07T18:28:14.891Z,3.79
2023-02-07T18:30:42.202Z,3.76
2023-02-07T18:33:09.487Z,3.72
2023-02-07T18:35:36.517Z,3.71
2023-02-07T18:38:06.129Z,3.68
2023-02-07T18:40:32.756Z,3.66
2023-02-07T18:42:59.669Z,3.65
2023-02-07T18:45:26.868Z,3.64
2023-02-07T18:47:53.575Z,3.64
2023-02-07T18:50:21.458Z,3.63
2023-02-07T18:52:48.396Z,3.64
2023-02-07T18:55:15.132Z,3.65
2023-02-07T18:57:41.719Z,3.67
2023-02-07T19:00:09.687Z,3.68
2023-02-07T19:02:37.007Z,3.67
2023-02-07T19:05:03.842Z,3.67
2023-02-07T19:07:30.578Z,3.66
2023-02-07T19:09:57.214Z,3.64
2023-02-07T19:12:23.852Z,3.61
2023-02-07T19:14:51.132Z,3.58
2023-02-07T19:17:19.122Z,3.56
2023-02-07T19:19:46.207Z,3.53
2023-02-07T19:22:12.771Z,3.52
2023-02-07T19:24:41.698Z,3.52
2023-02-07T19:27:09.590Z,3.53
2023-02-07T19:29:36.167Z,3.54
2023-02-07T19:32:08.360Z,3.53
2023-02-07T19:34:37.884Z,3.53
2023-02-07T19:37:04.987Z,3.50
2023-02-07T19:39:32.017Z,3.49
2023-02-07T19:41:58.643Z,3.46
2023-02-07T19:44:26.489Z,3.42
2023-02-07T19:46:53.205Z,3.41
2023-02-07T19:49:19.960Z,3.41
2023-02-07T19:51:48.137Z,3.40
2023-02-07T19:54:14.801Z,3.40
2023-02-07T19:56:42.435Z,3.39
2023-02-07T19:59:10.981Z,3.40
2023-02-07T20:01:38.272Z,3.39
2023-02-07T20:04:05.983Z,3.39
2023-02-07T20:06:34.420Z,3.37
2023-02-07T20:09:03.939Z,3.36
2023-02-07T20:11:31.168Z,3.33
2023-02-07T20:14:03.508Z,3.31
2023-02-07T20:16:34.316Z,3.29
2023-02-07T20:19:02.007Z,3.28
2023-02-07T20:21:30.712Z,3.25
2023-02-07T20:23:57.937Z,3.22
2023-02-07T20:26:34.156Z,3.18
2023-02-07T20:29:02.700Z,3.15
2023-02-07T20:31:32.163Z,3.12
2023-02-07T20:34:00.091Z,3.09
2023-02-07T20:36:27.119Z,3.07
2023-02-07T20:38:59.903Z,3.06
2023-02-07T20:41:29.635Z,3.04
2023-02-07T20:44:04.573Z,3.00
2023-02-07T20:46:33.180Z,2.97
2023-02-07T20:49:13.615Z,2.94
2023-02-07T20:51:42.578Z,2.93
2023-02-07T20:54:11.019Z,2.91
2023-02-07T20:56:38.368Z,2.90
2023-02-07T20:59:05.983Z,2.89
2023-02-07T21:01:34.382Z,2.88
2023-02-07T21:04:04.732Z,2.85
2023-02-07T21:06:32.857Z,2.80
2023-02-07T21:09:02.065Z,2.72
2023-02-07T21:11:33.934Z,2.65
2023-02-07T21:14:02.138Z,2.61
2023-02-07T21:16:30.970Z,2.59
2023-02-07T21:18:58.646Z,2.58
2023-02-07T21:21:26.228Z,2.57
2023-02-07T21:23:53.002Z,2.57
2023-02-07T21:26:19.868Z,2.57
2023-02-07T21:28:47.330Z,2.58
2023-02-07T21:31:21.762Z,2.59
2023-02-07T21:33:50.042Z,2.59
2023-02-07T21:36:22.577Z,2.58
2023-02-07T21:38:51.454Z,2.54
2023-02-07T21:41:21.533Z,2.49
2023-02-07T21:43:48.283Z,2.41
2023-02-07T21:46:22.839Z,2.38
2023-02-07T21:48:53.286Z,2.35
2023-02-07T21:51:22.571Z,2.33
2023-02-07T21:53:50.984Z,2.33
2023-02-07T21:56:20.073Z,2.32
2023-02-07T21:58:47.401Z,2.32
2023-02-07T22:01:19.028Z,2.33
2023-02-07T22:03:47.436Z,2.34
2023-02-07T22:06:15.859Z,2.33
2023-02-07T22:08:50.230Z,2.31
2023-02-07T22:11:18.726Z,2.30
2023-02-07T22:13:46.213Z,2.29
2023-02-07T22:16:15.669Z,2.28
2023-02-07T22:18:43.429Z,2.27
2023-02-07T22:21:22.625Z,2.26
2023-02-07T22:23:49.638Z,2.25
2023-02-07T22:26:17.991Z,2.24
2023-02-07T22:28:45.265Z,2.23
2023-02-07T22:31:15.175Z,2.24
2023-02-07T22:33:42.309Z,2.24
2023-02-07T22:36:17.428Z,2.25
2023-02-07T22:38:44.116Z,2.26
2023-02-07T22:41:10.756Z,2.26
2023-02-07T22:43:39.742Z,2.25
2023-02-07T22:46:08.766Z,2.23
2023-02-07T22:48:35.719Z,2.22
2023-02-07T22:51:20.625Z,2.22
2023-02-07T22:53:48.255Z,2.22
2023-02-07T22:56:15.720Z,2.23
2023-02-07T22:58:42.411Z,2.24
2023-02-07T23:01:21.290Z,2.25
2023-02-07T23:03:48.614Z,2.25
2023-02-07T23:06:15.952Z,2.25
2023-02-07T23:08:42.686Z,2.25
2023-02-07T23:11:12.723Z,2.25
2023-02-07T23:13:41.008Z,2.25
2023-02-07T23:16:20.815Z,2.25
2023-02-07T23:18:48.868Z,2.25
2023-02-07T23:21:18.228Z,2.22
2023-02-07T23:23:44.879Z,2.20
2023-02-07T23:26:14.609Z,2.18
2023-02-07T23:28:42.314Z,2.16
2023-02-07T23:31:15.377Z,2.12
2023-02-07T23:33:42.480Z,2.09
2023-02-07T23:36:09.668Z,2.07
2023-02-07T23:38:36.414Z,2.05
2023-02-07T23:41:04.074Z,2.04
2023-02-07T23:43:30.994Z,2.02
2023-02-07T23:45:57.746Z,1.99
2023-02-07T23:48:24.439Z,1.96
2023-02-07T23:50:52.787Z,1.93
2023-02-07T23:53:23.156Z,1.91
2023-02-07T23:55:50.913Z,1.89
2023-02-07T23:58:17.684Z,1.87
